createdAt,value
2023-04-08T00:06:36.069Z,0
2023-04-08T00:11:54.499Z,0
2023-04-08T00:17:21.485Z,0
2023-04-08T00:22:42.946Z,0
2023-04-08T00:28:05.481Z,0
2023-04-08T00:33:23.256Z,0
2023-04-08T00:38:40.402Z,0
2023-04-08T00:43:57.794Z,0
2023-04-08T00:49:14.988Z,0
2023-04-08T00:54:39.397Z,0
2023-04-08T00:59:57.165Z,0
2023-04-08T01:05:14.731Z,0
2023-04-08T01:10:32.297Z,0
2023-04-08T01:15:49.697Z,0
2023-04-08T01:21:06.852Z,0
2023-04-08T01:26:29.363Z,0
2023-04-08T01:31:46.723Z,0
2023-04-08T01:37:04.007Z,0
2023-04-08T01:42:21.152Z,0
2023-04-08T01:47:38.305Z,0
2023-04-08T01:52:55.737Z,0
2023-04-08T01:58:20.074Z,0
2023-04-08T02:03:37.605Z,0
2023-04-08T02:08:55.361Z,0
2023-04-08T02:14:12.660Z,0
2023-04-08T02:19:47.783Z,0
2023-04-08T02:25:05.292Z,0
2023-04-08T02:30:22.257Z,0
2023-04-08T02:35:39.656Z,0
2023-04-08T02:40:56.895Z,0
2023-04-08T02:46:21.482Z,0
2023-04-08T02:51:38.893Z,0
2023-04-08T02:56:56.318Z,0
2023-04-08T03:02:13.512Z,0
2023-04-08T03:07:30.908Z,0
2023-04-08T03:12:48.056Z,0
2023-04-08T03:18:05.241Z,0
2023-04-08T03:23:22.676Z,0
2023-04-08T03:28:39.990Z,0
2023-04-08T03:39:47.979Z,0
2023-04-08T03:45:05.115Z,0
2023-04-08T03:50:25.599Z,0
2023-04-08T03:55:42.841Z,0
2023-04-08T04:00:59.991Z,0
2023-04-08T04:06:17.713Z,0
2023-04-08T04:11:35.202Z,0
2023-04-08T04:16:55.553Z,0
2023-04-08T04:22:12.883Z,0
2023-04-08T04:27:30.484Z,0
2023-04-08T04:38:28.444Z,0.5
2023-04-08T04:43:45.832Z,23.7
2023-04-08T04:49:02.690Z,44.2
2023-04-08T04:54:22.715Z,92.9
2023-04-08T04:59:40.223Z,167.9
2023-04-08T05:04:57.166Z,233.8
2023-04-08T05:10:14.208Z,382.5
2023-04-08T05:15:31.166Z,452.5
2023-04-08T05:20:47.999Z,430.4
2023-04-08T05:26:22.679Z,517.9
2023-04-08T05:31:40.161Z,617.9
2023-04-08T05:37:14.562Z,807.1
2023-04-08T05:42:31.938Z,908.3
2023-04-08T05:47:48.866Z,923.3
2023-04-08T05:53:06.331Z,1273.8
2023-04-08T05:58:23.284Z,1306.3
2023-04-08T06:03:47.920Z,1460
2023-04-08T06:09:05.340Z,1307.1
2023-04-08T06:14:22.212Z,1035
2023-04-08T06:19:39.143Z,1193.7
2023-04-08T06:25:05.464Z,1109.2
2023-04-08T06:30:40.042Z,1822.5
2023-04-08T06:35:57.459Z,3728.8
2023-04-08T06:41:14.888Z,4123.8
2023-04-08T06:46:32.102Z,5544.2
2023-04-08T06:51:49.401Z,7796.3
2023-04-08T06:57:44.293Z,7112.9
2023-04-08T07:03:01.864Z,4579.2
2023-04-08T07:08:19.181Z,6965
2023-04-08T07:13:36.942Z,7595.8
2023-04-08T07:19:01.490Z,7182.5
2023-04-08T07:24:18.427Z,6285.4
2023-04-08T07:29:35.390Z,5267.5
2023-04-08T07:34:53.011Z,4207.5
2023-04-08T07:40:09.816Z,6995.4
2023-04-08T07:45:27.550Z,5121.2
2023-04-08T07:51:07.631Z,6056.3
2023-04-08T07:56:25.976Z,7068.8
2023-04-08T08:01:43.487Z,6975.8
2023-04-08T08:07:00.660Z,5321.2
2023-04-08T08:12:20.016Z,6975.4
2023-04-08T08:17:39.533Z,6057.5
2023-04-08T08:22:57.473Z,6073.3
2023-04-08T08:28:14.776Z,7727.9
2023-04-08T08:33:41.696Z,8644.2
2023-04-08T08:38:58.966Z,5546.7
2023-04-08T08:44:25.134Z,5390.4
2023-04-08T08:49:42.524Z,5669.6
2023-04-08T08:54:59.808Z,4687.9
2023-04-08T09:00:24.391Z,6068.3
2023-04-08T09:05:42.102Z,8012.9
2023-04-08T09:16:19.654Z,10572.1
2023-04-08T09:27:04.060Z,40499.2
2023-04-08T09:32:22.152Z,42268.3
2023-04-08T09:37:40.778Z,32715
2023-04-08T09:42:57.800Z,42312.5
2023-04-08T09:48:16.557Z,29227.5
2023-04-08T09:53:37.739Z,18303.3
2023-04-08T09:58:53.847Z,29930
2023-04-08T10:04:12.317Z,21733.7
2023-04-08T10:09:28.407Z,12329.2
2023-04-08T10:14:44.382Z,25824.6
2023-04-08T10:20:10.406Z,32355.8
2023-04-08T10:25:28.685Z,39167.5
2023-04-08T10:30:47.614Z,36306.7
2023-04-08T10:36:04.147Z,32777.5
2023-04-08T10:42:13.302Z,23956.7
2023-04-08T10:47:30.758Z,28052.5
2023-04-08T10:52:48.060Z,30865
2023-04-08T10:58:05.055Z,25536.3
2023-04-08T11:03:21.878Z,25467.5
2023-04-08T11:14:08.253Z,24007.9
2023-04-08T11:19:25.539Z,25493.3
2023-04-08T11:24:42.795Z,22838.3
2023-04-08T11:29:59.681Z,24557.5
2023-04-08T11:35:16.527Z,24026.2
2023-04-08T11:40:33.664Z,23784.2
2023-04-08T11:45:50.754Z,24149.2
2023-04-08T11:51:08.186Z,23804.2
2023-04-08T11:56:26.979Z,28251.7
2023-04-08T12:01:44.170Z,27480.8
2023-04-08T12:07:00.974Z,22380.8
2023-04-08T12:12:18.059Z,29108.3
2023-04-08T12:17:35.172Z,27530.8
2023-04-08T12:22:55.854Z,32305
2023-04-08T12:28:12.804Z,33055
2023-04-08T12:33:33.559Z,34432.5
2023-04-08T12:38:50.216Z,25330.8
2023-04-08T12:44:06.750Z,19665.4
2023-04-08T12:49:25.378Z,23472.5
2023-04-08T13:00:09.781Z,38074.2
2023-04-08T13:05:33.105Z,21552.9
2023-04-08T13:10:58.217Z,22331.7
2023-04-08T13:22:24.532Z,17870.4
2023-04-08T13:27:41.030Z,37461.7
2023-04-08T13:38:24.461Z,37417.5
2023-04-08T13:43:42.640Z,30873.3
2023-04-08T13:50:23.360Z,30391.7
2023-04-08T13:55:39.173Z,16482.9
2023-04-08T14:00:55.280Z,11156.7
2023-04-08T14:06:11.292Z,8652.5
2023-04-08T14:11:36.398Z,9127.1
2023-04-08T14:16:56.381Z,11452.1
2023-04-08T14:22:50.956Z,15611.7
2023-04-08T14:28:08.821Z,13498.7
2023-04-08T14:33:25.949Z,14572.1
2023-04-08T14:38:43.944Z,15995
2023-04-08T14:44:00.947Z,13165
2023-04-08T14:49:17.909Z,10375
2023-04-08T15:00:00.049Z,23674.6
2023-04-08T15:05:17.106Z,18846.2
2023-04-08T15:15:53.248Z,12953.7
2023-04-08T15:21:19.417Z,12470.4
2023-04-08T15:26:36.476Z,9827.9
2023-04-08T15:31:53.342Z,14666.7
2023-04-08T15:37:49.958Z,13174.2
2023-04-08T15:43:07.513Z,12629.2
2023-04-08T15:48:24.294Z,10269.6
2023-04-08T15:53:40.825Z,9252.9
2023-04-08T15:59:14.801Z,7870
2023-04-08T16:04:32.353Z,8194.6
2023-04-08T16:09:53.852Z,8665
2023-04-08T16:15:11.035Z,8980.4
2023-04-08T16:20:27.837Z,7663.8
2023-04-08T16:31:04.442Z,6204.6
2023-04-08T16:36:21.197Z,6050.8
2023-04-08T16:41:38.308Z,5472.5
2023-04-08T16:52:12.177Z,4841.7
2023-04-08T16:57:29.016Z,4542.1
2023-04-08T17:02:46.024Z,3761.3
2023-04-08T17:08:02.977Z,2646.3
2023-04-08T17:13:21.075Z,2634.2
2023-04-08T17:18:37.953Z,2807.5
2023-04-08T17:23:54.762Z,2449.2
2023-04-08T17:29:11.438Z,1842.1
2023-04-08T17:34:28.492Z,1697.5
2023-04-08T17:39:45.424Z,1352.5
2023-04-08T17:45:02.295Z,1187.5
2023-04-08T17:50:30.616Z,914.6
2023-04-08T17:55:47.868Z,703.7
2023-04-08T18:01:05.140Z,551.2
2023-04-08T18:06:22.045Z,334.2
2023-04-08T18:11:39.079Z,199.6
2023-04-08T18:16:58.778Z,120.8
2023-04-08T18:22:15.755Z,67.1
2023-04-08T18:32:42.838Z,16.8
2023-04-08T18:38:00.369Z,0
2023-04-08T18:43:18.042Z,0
2023-04-08T18:48:35.462Z,0
2023-04-08T18:53:52.916Z,0
2023-04-08T18:59:11.185Z,0
2023-04-08T19:04:28.641Z,0
2023-04-08T19:09:46.122Z,0
2023-04-08T19:15:03.408Z,0
2023-04-08T19:20:20.844Z,0
2023-04-08T19:25:38.258Z,0
2023-04-08T19:30:59.057Z,0
2023-04-08T19:36:16.694Z,0
2023-04-08T19:41:37.194Z,0
2023-04-08T19:46:56.897Z,0
2023-04-08T19:52:31.168Z,0
2023-04-08T19:57:48.692Z,0
2023-04-08T20:03:06.002Z,0
2023-04-08T20:08:23.616Z,0
2023-04-08T20:13:58.192Z,0
2023-04-08T20:19:15.847Z,0
2023-04-08T20:24:33.635Z,0
2023-04-08T20:29:51.423Z,0
2023-04-08T20:35:08.901Z,0
2023-04-08T20:40:26.589Z,0
2023-04-08T20:45:43.977Z,0
2023-04-08T20:51:01.211Z,0
2023-04-08T20:56:18.652Z,0
2023-04-08T21:01:36.144Z,0
2023-04-08T21:06:53.602Z,0
2023-04-08T21:12:10.707Z,0
2023-04-08T21:17:29.941Z,0
2023-04-08T21:22:47.410Z,0
2023-04-08T21:28:04.784Z,0
2023-04-08T21:33:22.263Z,0
2023-04-08T21:38:41.573Z,0
2023-04-08T21:43:59.031Z,0
2023-04-08T21:49:16.304Z,0
2023-04-08T21:54:33.587Z,0
2023-04-08T21:59:51.187Z,0
2023-04-08T22:05:08.527Z,0
2023-04-08T22:10:26.027Z,0
2023-04-08T22:15:43.412Z,0
2023-04-08T22:21:10.940Z,0
2023-04-08T22:26:31.111Z,0
2023-04-08T22:31:48.422Z,0
2023-04-08T22:37:05.886Z,0
2023-04-08T22:42:33.018Z,0
2023-04-08T22:47:50.730Z,0
2023-04-08T22:53:08.159Z,0
2023-04-08T22:58:27.679Z,0
2023-04-08T23:03:45.416Z,0
2023-04-08T23:09:02.813Z,0
2023-04-08T23:14:20.036Z,0
2023-04-08T23:19:37.421Z,0
2023-04-08T23:24:54.785Z,0
2023-04-08T23:30:11.972Z,0
2023-04-08T23:35:29.153Z,0
2023-04-08T23:40:51.971Z,0
2023-04-08T23:46:12.621Z,0
2023-04-08T23:51:30.187Z,0
2023-04-08T23:56:47.463Z,0
